sensor_id;sensor_type;location;lat;lon;timestamp;P1;durP1;ratioP1;P2;durP2;ratioP2
18726;SDS011;9492;51.888;5.186;2023-03-14T00:00:05;17.13;;;3.73;;
18726;SDS011;9492;51.888;5.186;2023-03-14T00:02:39;8.33;;;2.77;;
18726;SDS011;9492;51.888;5.186;2023-03-14T00:05:08;10.03;;;2.63;;
18726;SDS011;9492;51.888;5.186;2023-03-14T00:07:35;7.47;;;2.37;;
18726;SDS011;9492;51.888;5.186;2023-03-14T00:10:02;11.73;;;3.10;;
18726;SDS011;9492;51.888;5.186;2023-03-14T00:12:29;10.17;;;3.07;;
18726;SDS011;9492;51.888;5.186;2023-03-14T00:14:58;11.13;;;3.77;;
18726;SDS011;9492;51.888;5.186;2023-03-14T00:17:32;9.00;;;2.70;;
18726;SDS011;9492;51.888;5.186;2023-03-14T00:20:07;8.47;;;2.63;;
18726;SDS011;9492;51.888;5.186;2023-03-14T00:22:39;10.37;;;3.23;;
18726;SDS011;9492;51.888;5.186;2023-03-14T00:25:06;9.50;;;2.63;;
18726;SDS011;9492;51.888;5.186;2023-03-14T00:27:40;6.30;;;2.23;;
18726;SDS011;9492;51.888;5.186;2023-03-14T00:30:07;7.07;;;2.50;;
18726;SDS011;9492;51.888;5.186;2023-03-14T00:32:33;6.87;;;2.33;;
18726;SDS011;9492;51.888;5.186;2023-03-14T00:35:02;7.03;;;2.27;;
18726;SDS011;9492;51.888;5.186;2023-03-14T00:37:35;7.17;;;2.00;;
18726;SDS011;9492;51.888;5.186;2023-03-14T00:40:09;9.20;;;2.00;;
18726;SDS011;9492;51.888;5.186;2023-03-14T00:42:35;11.57;;;2.00;;
18726;SDS011;9492;51.888;5.186;2023-03-14T00:45:01;10.20;;;2.67;;
18726;SDS011;9492;51.888;5.186;2023-03-14T00:47:28;5.23;;;1.70;;
18726;SDS011;9492;51.888;5.186;2023-03-14T00:49:54;8.47;;;2.00;;
18726;SDS011;9492;51.888;5.186;2023-03-14T00:52:20;6.80;;;1.80;;
18726;SDS011;9492;51.888;5.186;2023-03-14T00:54:46;7.00;;;1.60;;
18726;SDS011;9492;51.888;5.186;2023-03-14T00:57:12;7.20;;;2.37;;
18726;SDS011;9492;51.888;5.186;2023-03-14T00:59:38;5.27;;;2.37;;
18726;SDS011;9492;51.888;5.186;2023-03-14T01:02:04;9.77;;;1.80;;
18726;SDS011;9492;51.888;5.186;2023-03-14T01:04:30;7.20;;;2.00;;
18726;SDS011;9492;51.888;5.186;2023-03-14T01:06:56;7.63;;;2.27;;
18726;SDS011;9492;51.888;5.186;2023-03-14T01:09:22;10.53;;;2.20;;
18726;SDS011;9492;51.888;5.186;2023-03-14T01:11:48;6.93;;;1.97;;
18726;SDS011;9492;51.888;5.186;2023-03-14T01:14:14;10.67;;;1.90;;
18726;SDS011;9492;51.888;5.186;2023-03-14T01:16:40;7.97;;;2.07;;
18726;SDS011;9492;51.888;5.186;2023-03-14T01:19:06;6.93;;;2.20;;
18726;SDS011;9492;51.888;5.186;2023-03-14T01:21:34;7.53;;;2.57;;
18726;SDS011;9492;51.888;5.186;2023-03-14T01:24:01;10.13;;;2.30;;
18726;SDS011;9492;51.888;5.186;2023-03-14T01:26:28;9.50;;;1.50;;
18726;SDS011;9492;51.888;5.186;2023-03-14T01:28:55;6.73;;;1.80;;
18726;SDS011;9492;51.888;5.186;2023-03-14T01:31:22;8.37;;;1.70;;
18726;SDS011;9492;51.888;5.186;2023-03-14T01:33:48;5.93;;;1.80;;
18726;SDS011;9492;51.888;5.186;2023-03-14T01:36:14;9.90;;;1.70;;
18726;SDS011;9492;51.888;5.186;2023-03-14T01:38:40;6.70;;;2.10;;
18726;SDS011;9492;51.888;5.186;2023-03-14T01:41:07;6.07;;;1.90;;
18726;SDS011;9492;51.888;5.186;2023-03-14T01:43:33;6.40;;;1.90;;
18726;SDS011;9492;51.888;5.186;2023-03-14T01:51:04;5.30;;;1.70;;
18726;SDS011;9492;51.888;5.186;2023-03-14T01:53:31;7.90;;;2.33;;
18726;SDS011;9492;51.888;5.186;2023-03-14T01:55:57;7.77;;;2.23;;
18726;SDS011;9492;51.888;5.186;2023-03-14T01:58:24;6.70;;;2.23;;
18726;SDS011;9492;51.888;5.186;2023-03-14T02:00:52;8.77;;;2.00;;
18726;SDS011;9492;51.888;5.186;2023-03-14T02:03:18;5.93;;;2.67;;
18726;SDS011;9492;51.888;5.186;2023-03-14T02:05:52;5.63;;;2.10;;
18726;SDS011;9492;51.888;5.186;2023-03-14T02:08:22;9.40;;;2.77;;
18726;SDS011;9492;51.888;5.186;2023-03-14T02:10:49;6.70;;;2.10;;
18726;SDS011;9492;51.888;5.186;2023-03-14T02:13:17;8.23;;;2.63;;
18726;SDS011;9492;51.888;5.186;2023-03-14T02:15:44;8.13;;;2.47;;
18726;SDS011;9492;51.888;5.186;2023-03-14T02:18:10;4.77;;;1.83;;
18726;SDS011;9492;51.888;5.186;2023-03-14T02:23:05;8.40;;;3.40;;
18726;SDS011;9492;51.888;5.186;2023-03-14T02:28:04;4.20;;;1.90;;
18726;SDS011;9492;51.888;5.186;2023-03-14T02:30:30;6.00;;;1.80;;
18726;SDS011;9492;51.888;5.186;2023-03-14T02:32:58;4.27;;;1.53;;
18726;SDS011;9492;51.888;5.186;2023-03-14T02:35:26;6.80;;;2.30;;
18726;SDS011;9492;51.888;5.186;2023-03-14T02:40:37;4.50;;;1.60;;
18726;SDS011;9492;51.888;5.186;2023-03-14T02:43:03;5.10;;;1.80;;
18726;SDS011;9492;51.888;5.186;2023-03-14T02:45:35;9.47;;;2.30;;
18726;SDS011;9492;51.888;5.186;2023-03-14T02:48:02;5.60;;;1.70;;
18726;SDS011;9492;51.888;5.186;2023-03-14T02:50:30;4.23;;;1.77;;
18726;SDS011;9492;51.888;5.186;2023-03-14T02:52:59;8.50;;;1.87;;
18726;SDS011;9492;51.888;5.186;2023-03-14T02:55:25;4.30;;;1.83;;
18726;SDS011;9492;51.888;5.186;2023-03-14T02:57:51;5.03;;;2.13;;
18726;SDS011;9492;51.888;5.186;2023-03-14T03:00:18;7.90;;;2.20;;
18726;SDS011;9492;51.888;5.186;2023-03-14T03:02:44;6.13;;;2.27;;
18726;SDS011;9492;51.888;5.186;2023-03-14T03:05:11;9.20;;;2.20;;
18726;SDS011;9492;51.888;5.186;2023-03-14T03:07:37;3.80;;;2.20;;
18726;SDS011;9492;51.888;5.186;2023-03-14T03:10:03;10.33;;;2.47;;
18726;SDS011;9492;51.888;5.186;2023-03-14T03:12:29;10.67;;;2.93;;
18726;SDS011;9492;51.888;5.186;2023-03-14T03:14:55;9.57;;;3.00;;
18726;SDS011;9492;51.888;5.186;2023-03-14T03:17:21;10.63;;;2.60;;
18726;SDS011;9492;51.888;5.186;2023-03-14T03:19:47;8.00;;;2.53;;
18726;SDS011;9492;51.888;5.186;2023-03-14T03:22:13;8.23;;;2.33;;
18726;SDS011;9492;51.888;5.186;2023-03-14T03:24:39;4.50;;;1.90;;
18726;SDS011;9492;51.888;5.186;2023-03-14T03:27:06;4.67;;;2.07;;
18726;SDS011;9492;51.888;5.186;2023-03-14T03:29:32;5.27;;;1.70;;
18726;SDS011;9492;51.888;5.186;2023-03-14T03:31:57;9.87;;;3.10;;
18726;SDS011;9492;51.888;5.186;2023-03-14T03:34:23;5.93;;;2.33;;
18726;SDS011;9492;51.888;5.186;2023-03-14T03:36:49;6.73;;;2.10;;
18726;SDS011;9492;51.888;5.186;2023-03-14T03:39:15;5.73;;;1.67;;
18726;SDS011;9492;51.888;5.186;2023-03-14T03:41:41;8.10;;;2.63;;
18726;SDS011;9492;51.888;5.186;2023-03-14T03:44:07;8.63;;;2.60;;
18726;SDS011;9492;51.888;5.186;2023-03-14T03:46:33;8.77;;;2.00;;
18726;SDS011;9492;51.888;5.186;2023-03-14T03:48:59;8.77;;;1.77;;
18726;SDS011;9492;51.888;5.186;2023-03-14T03:51:26;8.50;;;2.30;;
18726;SDS011;9492;51.888;5.186;2023-03-14T03:53:52;9.13;;;2.20;;
18726;SDS011;9492;51.888;5.186;2023-03-14T03:56:18;6.60;;;2.17;;
18726;SDS011;9492;51.888;5.186;2023-03-14T03:58:44;9.93;;;2.37;;
18726;SDS011;9492;51.888;5.186;2023-03-14T04:01:10;6.50;;;1.90;;
18726;SDS011;9492;51.888;5.186;2023-03-14T04:03:36;10.47;;;2.40;;
18726;SDS011;9492;51.888;5.186;2023-03-14T04:06:08;6.97;;;2.07;;
18726;SDS011;9492;51.888;5.186;2023-03-14T04:08:35;6.57;;;2.53;;
18726;SDS011;9492;51.888;5.186;2023-03-14T04:11:01;9.70;;;2.60;;
18726;SDS011;9492;51.888;5.186;2023-03-14T04:13:27;7.17;;;2.10;;
18726;SDS011;9492;51.888;5.186;2023-03-14T04:15:57;5.93;;;1.80;;
18726;SDS011;9492;51.888;5.186;2023-03-14T04:18:23;6.77;;;2.70;;
18726;SDS011;9492;51.888;5.186;2023-03-14T04:20:52;7.87;;;2.30;;
18726;SDS011;9492;51.888;5.186;2023-03-14T04:23:19;6.93;;;1.80;;
18726;SDS011;9492;51.888;5.186;2023-03-14T04:25:45;7.17;;;2.60;;
18726;SDS011;9492;51.888;5.186;2023-03-14T04:28:11;6.90;;;2.20;;
18726;SDS011;9492;51.888;5.186;2023-03-14T04:30:37;5.00;;;1.83;;
18726;SDS011;9492;51.888;5.186;2023-03-14T04:33:03;10.00;;;2.37;;
18726;SDS011;9492;51.888;5.186;2023-03-14T04:35:30;6.70;;;2.03;;
18726;SDS011;9492;51.888;5.186;2023-03-14T04:37:56;7.50;;;2.03;;
18726;SDS011;9492;51.888;5.186;2023-03-14T04:40:22;6.37;;;2.00;;
18726;SDS011;9492;51.888;5.186;2023-03-14T04:42:48;6.90;;;1.80;;
18726;SDS011;9492;51.888;5.186;2023-03-14T04:45:14;5.23;;;1.50;;
18726;SDS011;9492;51.888;5.186;2023-03-14T04:47:40;5.23;;;1.80;;
18726;SDS011;9492;51.888;5.186;2023-03-14T04:50:07;7.50;;;2.07;;
18726;SDS011;9492;51.888;5.186;2023-03-14T04:52:33;7.73;;;2.10;;
18726;SDS011;9492;51.888;5.186;2023-03-14T04:54:59;7.10;;;1.83;;
18726;SDS011;9492;51.888;5.186;2023-03-14T04:57:25;4.00;;;2.20;;
18726;SDS011;9492;51.888;5.186;2023-03-14T04:59:51;3.90;;;2.20;;
18726;SDS011;9492;51.888;5.186;2023-03-14T05:02:20;7.27;;;1.70;;
18726;SDS011;9492;51.888;5.186;2023-03-14T05:04:49;6.27;;;2.13;;
18726;SDS011;9492;51.888;5.186;2023-03-14T05:07:18;7.67;;;1.90;;
18726;SDS011;9492;51.888;5.186;2023-03-14T05:09:43;3.87;;;1.67;;
18726;SDS011;9492;51.888;5.186;2023-03-14T05:12:10;6.47;;;1.73;;
18726;SDS011;9492;51.888;5.186;2023-03-14T05:14:35;5.63;;;2.07;;
18726;SDS011;9492;51.888;5.186;2023-03-14T05:17:01;6.27;;;2.00;;
18726;SDS011;9492;51.888;5.186;2023-03-14T05:19:28;4.30;;;2.03;;
18726;SDS011;9492;51.888;5.186;2023-03-14T05:21:54;3.80;;;1.80;;
18726;SDS011;9492;51.888;5.186;2023-03-14T05:24:19;5.50;;;2.07;;
18726;SDS011;9492;51.888;5.186;2023-03-14T05:26:45;5.87;;;1.90;;
18726;SDS011;9492;51.888;5.186;2023-03-14T05:29:11;5.03;;;2.17;;
18726;SDS011;9492;51.888;5.186;2023-03-14T05:31:37;3.40;;;2.13;;
18726;SDS011;9492;51.888;5.186;2023-03-14T05:34:03;3.87;;;2.20;;
18726;SDS011;9492;51.888;5.186;2023-03-14T05:36:29;4.53;;;2.30;;
18726;SDS011;9492;51.888;5.186;2023-03-14T05:38:55;3.00;;;1.90;;
18726;SDS011;9492;51.888;5.186;2023-03-14T05:41:21;4.47;;;2.23;;
18726;SDS011;9492;51.888;5.186;2023-03-14T05:43:47;5.37;;;2.70;;
18726;SDS011;9492;51.888;5.186;2023-03-14T05:46:13;5.83;;;2.70;;
18726;SDS011;9492;51.888;5.186;2023-03-14T05:48:39;4.90;;;2.73;;
18726;SDS011;9492;51.888;5.186;2023-03-14T05:51:05;7.63;;;3.20;;
18726;SDS011;9492;51.888;5.186;2023-03-14T05:53:32;3.53;;;2.73;;
18726;SDS011;9492;51.888;5.186;2023-03-14T05:55:57;6.93;;;3.70;;
18726;SDS011;9492;51.888;5.186;2023-03-14T05:58:23;5.03;;;3.00;;
18726;SDS011;9492;51.888;5.186;2023-03-14T06:00:50;7.87;;;3.57;;
18726;SDS011;9492;51.888;5.186;2023-03-14T06:03:16;6.33;;;3.23;;
18726;SDS011;9492;51.888;5.186;2023-03-14T06:05:42;5.17;;;3.90;;
18726;SDS011;9492;51.888;5.186;2023-03-14T06:08:08;6.77;;;3.73;;
18726;SDS011;9492;51.888;5.186;2023-03-14T06:10:34;7.30;;;4.00;;
18726;SDS011;9492;51.888;5.186;2023-03-14T06:13:01;6.93;;;4.13;;
18726;SDS011;9492;51.888;5.186;2023-03-14T06:15:27;8.63;;;4.43;;
18726;SDS011;9492;51.888;5.186;2023-03-14T06:17:56;8.70;;;4.10;;
18726;SDS011;9492;51.888;5.186;2023-03-14T06:20:22;10.23;;;5.17;;
18726;SDS011;9492;51.888;5.186;2023-03-14T06:22:48;7.13;;;4.60;;
18726;SDS011;9492;51.888;5.186;2023-03-14T06:25:14;8.17;;;5.43;;
18726;SDS011;9492;51.888;5.186;2023-03-14T06:27:40;7.03;;;4.70;;
18726;SDS011;9492;51.888;5.186;2023-03-14T06:30:07;6.70;;;5.00;;
18726;SDS011;9492;51.888;5.186;2023-03-14T06:32:33;8.53;;;4.83;;
18726;SDS011;9492;51.888;5.186;2023-03-14T06:34:59;7.37;;;4.20;;
18726;SDS011;9492;51.888;5.186;2023-03-14T06:37:26;3.10;;;2.20;;
18726;SDS011;9492;51.888;5.186;2023-03-14T06:39:51;2.60;;;1.10;;
18726;SDS011;9492;51.888;5.186;2023-03-14T06:42:17;2.83;;;1.00;;
18726;SDS011;9492;51.888;5.186;2023-03-14T06:44:43;4.83;;;1.70;;
18726;SDS011;9492;51.888;5.186;2023-03-14T06:47:09;1.20;;;0.90;;
18726;SDS011;9492;51.888;5.186;2023-03-14T06:49:35;2.33;;;1.00;;
18726;SDS011;9492;51.888;5.186;2023-03-14T06:52:01;0.97;;;0.80;;
18726;SDS011;9492;51.888;5.186;2023-03-14T06:54:27;1.03;;;0.70;;
18726;SDS011;9492;51.888;5.186;2023-03-14T06:56:53;1.63;;;0.90;;
18726;SDS011;9492;51.888;5.186;2023-03-14T06:59:19;1.03;;;0.73;;
18726;SDS011;9492;51.888;5.186;2023-03-14T07:01:45;0.70;;;0.70;;
18726;SDS011;9492;51.888;5.186;2023-03-14T07:04:13;1.23;;;0.87;;
18726;SDS011;9492;51.888;5.186;2023-03-14T07:06:39;4.47;;;1.03;;
18726;SDS011;9492;51.888;5.186;2023-03-14T07:09:09;2.70;;;0.97;;
18726;SDS011;9492;51.888;5.186;2023-03-14T07:11:35;3.73;;;0.90;;
18726;SDS011;9492;51.888;5.186;2023-03-14T07:14:01;1.23;;;0.70;;
18726;SDS011;9492;51.888;5.186;2023-03-14T07:16:27;2.57;;;1.00;;
18726;SDS011;9492;51.888;5.186;2023-03-14T07:18:56;1.97;;;0.73;;
18726;SDS011;9492;51.888;5.186;2023-03-14T07:21:22;1.87;;;0.90;;
18726;SDS011;9492;51.888;5.186;2023-03-14T07:23:48;1.77;;;1.07;;
18726;SDS011;9492;51.888;5.186;2023-03-14T07:26:14;3.93;;;1.40;;
18726;SDS011;9492;51.888;5.186;2023-03-14T07:28:41;2.57;;;1.10;;
18726;SDS011;9492;51.888;5.186;2023-03-14T07:31:07;6.27;;;1.27;;
18726;SDS011;9492;51.888;5.186;2023-03-14T07:33:33;3.53;;;1.20;;
18726;SDS011;9492;51.888;5.186;2023-03-14T07:35:59;2.33;;;1.03;;
18726;SDS011;9492;51.888;5.186;2023-03-14T07:38:25;2.50;;;1.30;;
18726;SDS011;9492;51.888;5.186;2023-03-14T07:40:57;3.93;;;1.27;;
18726;SDS011;9492;51.888;5.186;2023-03-14T07:43:23;3.27;;;1.30;;
18726;SDS011;9492;51.888;5.186;2023-03-14T07:45:49;1.77;;;0.80;;
18726;SDS011;9492;51.888;5.186;2023-03-14T07:48:15;2.07;;;1.10;;
18726;SDS011;9492;51.888;5.186;2023-03-14T07:50:42;2.17;;;0.90;;
18726;SDS011;9492;51.888;5.186;2023-03-14T07:53:08;3.67;;;1.33;;
18726;SDS011;9492;51.888;5.186;2023-03-14T07:55:34;4.53;;;1.03;;
18726;SDS011;9492;51.888;5.186;2023-03-14T07:58:00;2.73;;;1.07;;
18726;SDS011;9492;51.888;5.186;2023-03-14T08:00:26;7.03;;;1.50;;
18726;SDS011;9492;51.888;5.186;2023-03-14T08:02:52;2.43;;;0.90;;
18726;SDS011;9492;51.888;5.186;2023-03-14T08:05:18;3.97;;;1.00;;
18726;SDS011;9492;51.888;5.186;2023-03-14T08:07:44;5.47;;;1.23;;
18726;SDS011;9492;51.888;5.186;2023-03-14T08:10:10;2.10;;;1.07;;
18726;SDS011;9492;51.888;5.186;2023-03-14T08:12:40;1.67;;;0.80;;
18726;SDS011;9492;51.888;5.186;2023-03-14T08:15:06;4.40;;;0.90;;
18726;SDS011;9492;51.888;5.186;2023-03-14T08:17:32;3.83;;;0.90;;
18726;SDS011;9492;51.888;5.186;2023-03-14T08:19:58;1.40;;;0.60;;
18726;SDS011;9492;51.888;5.186;2023-03-14T08:22:24;3.10;;;0.90;;
18726;SDS011;9492;51.888;5.186;2023-03-14T08:24:50;0.60;;;0.60;;
18726;SDS011;9492;51.888;5.186;2023-03-14T08:27:16;0.60;;;0.60;;
18726;SDS011;9492;51.888;5.186;2023-03-14T08:29:42;4.87;;;1.13;;
18726;SDS011;9492;51.888;5.186;2023-03-14T08:32:08;5.73;;;0.83;;
18726;SDS011;9492;51.888;5.186;2023-03-14T08:34:34;2.17;;;0.80;;
18726;SDS011;9492;51.888;5.186;2023-03-14T08:37:00;2.13;;;0.97;;
18726;SDS011;9492;51.888;5.186;2023-03-14T08:39:26;4.67;;;1.20;;
18726;SDS011;9492;51.888;5.186;2023-03-14T08:41:52;1.80;;;0.97;;
18726;SDS011;9492;51.888;5.186;2023-03-14T08:47:06;0.60;;;0.60;;
18726;SDS011;9492;51.888;5.186;2023-03-14T08:49:32;0.60;;;0.60;;
18726;SDS011;9492;51.888;5.186;2023-03-14T08:52:02;0.97;;;0.70;;
18726;SDS011;9492;51.888;5.186;2023-03-14T08:54:33;3.03;;;0.83;;
18726;SDS011;9492;51.888;5.186;2023-03-14T08:56:59;2.40;;;0.90;;
18726;SDS011;9492;51.888;5.186;2023-03-14T08:59:32;3.43;;;1.00;;
18726;SDS011;9492;51.888;5.186;2023-03-14T09:04:30;1.03;;;0.73;;
18726;SDS011;9492;51.888;5.186;2023-03-14T09:06:58;0.53;;;0.50;;
18726;SDS011;9492;51.888;5.186;2023-03-14T09:09:25;3.47;;;0.80;;
18726;SDS011;9492;51.888;5.186;2023-03-14T09:11:55;1.03;;;0.60;;
18726;SDS011;9492;51.888;5.186;2023-03-14T09:14:21;1.67;;;0.90;;
18726;SDS011;9492;51.888;5.186;2023-03-14T09:16:47;3.23;;;0.80;;
18726;SDS011;9492;51.888;5.186;2023-03-14T09:19:14;1.57;;;0.90;;
18726;SDS011;9492;51.888;5.186;2023-03-14T09:21:40;4.00;;;1.00;;
18726;SDS011;9492;51.888;5.186;2023-03-14T09:24:06;2.00;;;0.97;;
18726;SDS011;9492;51.888;5.186;2023-03-14T09:26:32;2.70;;;1.20;;
18726;SDS011;9492;51.888;5.186;2023-03-14T09:29:17;6.50;;;1.83;;
18726;SDS011;9492;51.888;5.186;2023-03-14T09:31:43;6.23;;;1.13;;
18726;SDS011;9492;51.888;5.186;2023-03-14T09:34:09;5.50;;;1.23;;
18726;SDS011;9492;51.888;5.186;2023-03-14T09:36:35;3.93;;;1.30;;
18726;SDS011;9492;51.888;5.186;2023-03-14T09:39:03;6.43;;;1.50;;
18726;SDS011;9492;51.888;5.186;2023-03-14T09:41:39;6.50;;;2.17;;
18726;SDS011;9492;51.888;5.186;2023-03-14T09:44:24;7.67;;;1.93;;
18726;SDS011;9492;51.888;5.186;2023-03-14T09:46:52;7.37;;;2.07;;
18726;SDS011;9492;51.888;5.186;2023-03-14T09:49:22;4.93;;;1.63;;
18726;SDS011;9492;51.888;5.186;2023-03-14T09:51:53;3.70;;;1.40;;
18726;SDS011;9492;51.888;5.186;2023-03-14T09:57:05;7.60;;;1.87;;
18726;SDS011;9492;51.888;5.186;2023-03-14T09:59:31;5.37;;;1.50;;
18726;SDS011;9492;51.888;5.186;2023-03-14T10:02:11;6.20;;;1.60;;
18726;SDS011;9492;51.888;5.186;2023-03-14T10:04:38;8.63;;;1.83;;
18726;SDS011;9492;51.888;5.186;2023-03-14T10:07:11;9.43;;;1.90;;
18726;SDS011;9492;51.888;5.186;2023-03-14T10:09:39;7.93;;;2.07;;
18726;SDS011;9492;51.888;5.186;2023-03-14T10:12:07;8.07;;;1.87;;
18726;SDS011;9492;51.888;5.186;2023-03-14T10:14:36;11.10;;;2.00;;
18726;SDS011;9492;51.888;5.186;2023-03-14T10:17:09;4.77;;;1.67;;
18726;SDS011;9492;51.888;5.186;2023-03-14T10:19:36;8.23;;;2.27;;
18726;SDS011;9492;51.888;5.186;2023-03-14T10:22:03;5.37;;;1.90;;
18726;SDS011;9492;51.888;5.186;2023-03-14T10:24:35;5.70;;;1.70;;
18726;SDS011;9492;51.888;5.186;2023-03-14T10:27:05;5.33;;;1.70;;
18726;SDS011;9492;51.888;5.186;2023-03-14T10:29:51;7.17;;;1.83;;
18726;SDS011;9492;51.888;5.186;2023-03-14T10:32:18;6.00;;;1.93;;
18726;SDS011;9492;51.888;5.186;2023-03-14T10:34:45;7.77;;;1.77;;
18726;SDS011;9492;51.888;5.186;2023-03-14T10:37:29;5.13;;;2.13;;
18726;SDS011;9492;51.888;5.186;2023-03-14T10:39:58;7.20;;;2.10;;
18726;SDS011;9492;51.888;5.186;2023-03-14T10:42:30;8.13;;;1.93;;
18726;SDS011;9492;51.888;5.186;2023-03-14T10:45:00;6.03;;;2.30;;
18726;SDS011;9492;51.888;5.186;2023-03-14T10:47:27;9.57;;;2.63;;
18726;SDS011;9492;51.888;5.186;2023-03-14T10:49:53;10.13;;;1.90;;
18726;SDS011;9492;51.888;5.186;2023-03-14T10:52:24;9.53;;;2.40;;
18726;SDS011;9492;51.888;5.186;2023-03-14T10:54:57;10.57;;;2.33;;
18726;SDS011;9492;51.888;5.186;2023-03-14T10:57:24;12.33;;;2.33;;
18726;SDS011;9492;51.888;5.186;2023-03-14T10:59:50;13.70;;;2.73;;
18726;SDS011;9492;51.888;5.186;2023-03-14T11:04:55;13.70;;;2.60;;
18726;SDS011;9492;51.888;5.186;2023-03-14T11:07:33;11.10;;;2.93;;
18726;SDS011;9492;51.888;5.186;2023-03-14T11:10:04;15.20;;;2.97;;
18726;SDS011;9492;51.888;5.186;2023-03-14T11:17:41;10.70;;;2.53;;
18726;SDS011;9492;51.888;5.186;2023-03-14T11:22:41;11.20;;;2.67;;
18726;SDS011;9492;51.888;5.186;2023-03-14T11:25:12;10.47;;;2.20;;
18726;SDS011;9492;51.888;5.186;2023-03-14T11:27:44;13.37;;;2.77;;
18726;SDS011;9492;51.888;5.186;2023-03-14T11:32:45;10.77;;;2.60;;
18726;SDS011;9492;51.888;5.186;2023-03-14T11:35:15;10.47;;;2.90;;
18726;SDS011;9492;51.888;5.186;2023-03-14T11:37:45;10.47;;;2.60;;
18726;SDS011;9492;51.888;5.186;2023-03-14T11:42:40;20.37;;;3.23;;
18726;SDS011;9492;51.888;5.186;2023-03-14T11:45:15;15.37;;;3.10;;
18726;SDS011;9492;51.888;5.186;2023-03-14T11:47:42;10.00;;;2.30;;
18726;SDS011;9492;51.888;5.186;2023-03-14T11:50:17;14.97;;;2.60;;
18726;SDS011;9492;51.888;5.186;2023-03-14T11:52:46;9.83;;;2.93;;
18726;SDS011;9492;51.888;5.186;2023-03-14T11:55:24;12.00;;;3.40;;
18726;SDS011;9492;51.888;5.186;2023-03-14T11:57:51;9.27;;;3.27;;
18726;SDS011;9492;51.888;5.186;2023-03-14T12:00:23;8.77;;;2.40;;
18726;SDS011;9492;51.888;5.186;2023-03-14T12:13:36;6.80;;;2.10;;
18726;SDS011;9492;51.888;5.186;2023-03-14T12:16:44;8.30;;;1.70;;
18726;SDS011;9492;51.888;5.186;2023-03-14T12:21:24;8.23;;;2.23;;
18726;SDS011;9492;51.888;5.186;2023-03-14T12:23:54;4.67;;;1.63;;
18726;SDS011;9492;51.888;5.186;2023-03-14T12:26:22;6.17;;;1.97;;
18726;SDS011;9492;51.888;5.186;2023-03-14T12:28:52;7.10;;;2.33;;
18726;SDS011;9492;51.888;5.186;2023-03-14T12:31:41;8.40;;;1.93;;
18726;SDS011;9492;51.888;5.186;2023-03-14T12:41:51;17.67;;;2.20;;
18726;SDS011;9492;51.888;5.186;2023-03-14T12:49:51;6.73;;;1.53;;
18726;SDS011;9492;51.888;5.186;2023-03-14T12:52:22;4.93;;;1.60;;
18726;SDS011;9492;51.888;5.186;2023-03-14T12:55:09;6.23;;;2.30;;
18726;SDS011;9492;51.888;5.186;2023-03-14T12:57:36;5.60;;;1.77;;
18726;SDS011;9492;51.888;5.186;2023-03-14T13:00:19;9.70;;;2.10;;
18726;SDS011;9492;51.888;5.186;2023-03-14T13:02:46;7.53;;;1.80;;
18726;SDS011;9492;51.888;5.186;2023-03-14T13:12:39;7.77;;;1.47;;
18726;SDS011;9492;51.888;5.186;2023-03-14T13:15:19;5.27;;;1.70;;
18726;SDS011;9492;51.888;5.186;2023-03-14T13:17:46;5.30;;;1.83;;
18726;SDS011;9492;51.888;5.186;2023-03-14T13:20:15;4.03;;;1.30;;
18726;SDS011;9492;51.888;5.186;2023-03-14T13:22:45;7.63;;;1.93;;
18726;SDS011;9492;51.888;5.186;2023-03-14T13:25:11;7.00;;;1.80;;
18726;SDS011;9492;51.888;5.186;2023-03-14T13:27:37;7.63;;;1.40;;
18726;SDS011;9492;51.888;5.186;2023-03-14T13:32:50;5.67;;;1.80;;
18726;SDS011;9492;51.888;5.186;2023-03-14T13:37:46;4.20;;;1.70;;
18726;SDS011;9492;51.888;5.186;2023-03-14T13:40:19;6.53;;;1.43;;
18726;SDS011;9492;51.888;5.186;2023-03-14T13:42:46;8.10;;;2.97;;
18726;SDS011;9492;51.888;5.186;2023-03-14T13:45:13;7.23;;;1.83;;
18726;SDS011;9492;51.888;5.186;2023-03-14T13:47:41;6.83;;;1.63;;
18726;SDS011;9492;51.888;5.186;2023-03-14T13:50:25;4.33;;;1.67;;
18726;SDS011;9492;51.888;5.186;2023-03-14T13:55:26;2.83;;;1.10;;
18726;SDS011;9492;51.888;5.186;2023-03-14T13:57:55;6.13;;;1.80;;
18726;SDS011;9492;51.888;5.186;2023-03-14T14:00:38;6.77;;;1.80;;
18726;SDS011;9492;51.888;5.186;2023-03-14T14:03:04;4.77;;;1.30;;
18726;SDS011;9492;51.888;5.186;2023-03-14T14:05:47;5.60;;;1.67;;
18726;SDS011;9492;51.888;5.186;2023-03-14T14:08:13;3.43;;;1.53;;
18726;SDS011;9492;51.888;5.186;2023-03-14T14:13:34;6.70;;;1.77;;
18726;SDS011;9492;51.888;5.186;2023-03-14T14:16:02;4.90;;;1.40;;
18726;SDS011;9492;51.888;5.186;2023-03-14T14:18:29;10.30;;;1.77;;
18726;SDS011;9492;51.888;5.186;2023-03-14T14:26:18;3.40;;;1.63;;
18726;SDS011;9492;51.888;5.186;2023-03-14T14:28:45;4.60;;;1.50;;
18726;SDS011;9492;51.888;5.186;2023-03-14T14:33:44;5.27;;;1.67;;
18726;SDS011;9492;51.888;5.186;2023-03-14T14:41:34;4.10;;;1.40;;
18726;SDS011;9492;51.888;5.186;2023-03-14T14:44:03;5.50;;;2.40;;
18726;SDS011;9492;51.888;5.186;2023-03-14T14:46:32;4.43;;;1.83;;
18726;SDS011;9492;51.888;5.186;2023-03-14T14:49:04;5.53;;;1.60;;
18726;SDS011;9492;51.888;5.186;2023-03-14T14:51:31;6.13;;;2.10;;
18726;SDS011;9492;51.888;5.186;2023-03-14T14:54:05;6.03;;;1.40;;
18726;SDS011;9492;51.888;5.186;2023-03-14T14:56:35;6.13;;;1.53;;
18726;SDS011;9492;51.888;5.186;2023-03-14T14:59:02;6.43;;;1.60;;
18726;SDS011;9492;51.888;5.186;2023-03-14T15:03:59;10.63;;;1.53;;
18726;SDS011;9492;51.888;5.186;2023-03-14T15:06:28;4.77;;;1.80;;
18726;SDS011;9492;51.888;5.186;2023-03-14T15:08:54;5.47;;;1.67;;
18726;SDS011;9492;51.888;5.186;2023-03-14T15:11:24;6.37;;;1.70;;
18726;SDS011;9492;51.888;5.186;2023-03-14T15:13:51;3.03;;;1.50;;
18726;SDS011;9492;51.888;5.186;2023-03-14T15:16:18;4.27;;;1.33;;
18726;SDS011;9492;51.888;5.186;2023-03-14T15:18:44;6.00;;;1.30;;
18726;SDS011;9492;51.888;5.186;2023-03-14T15:21:11;4.60;;;1.57;;
18726;SDS011;9492;51.888;5.186;2023-03-14T15:23:37;6.20;;;1.57;;
18726;SDS011;9492;51.888;5.186;2023-03-14T15:26:08;9.70;;;1.63;;
18726;SDS011;9492;51.888;5.186;2023-03-14T15:28:37;6.60;;;1.60;;
18726;SDS011;9492;51.888;5.186;2023-03-14T15:31:02;7.30;;;1.30;;
18726;SDS011;9492;51.888;5.186;2023-03-14T15:33:28;5.73;;;1.43;;
18726;SDS011;9492;51.888;5.186;2023-03-14T15:35:57;8.20;;;1.77;;
18726;SDS011;9492;51.888;5.186;2023-03-14T15:38:25;7.67;;;1.60;;
18726;SDS011;9492;51.888;5.186;2023-03-14T15:40:54;6.13;;;1.37;;
18726;SDS011;9492;51.888;5.186;2023-03-14T15:43:20;9.17;;;1.73;;
18726;SDS011;9492;51.888;5.186;2023-03-14T15:45:46;4.40;;;1.70;;
18726;SDS011;9492;51.888;5.186;2023-03-14T15:48:17;6.90;;;1.77;;
18726;SDS011;9492;51.888;5.186;2023-03-14T15:50:43;4.90;;;1.20;;
18726;SDS011;9492;51.888;5.186;2023-03-14T15:53:09;4.57;;;1.83;;
18726;SDS011;9492;51.888;5.186;2023-03-14T15:55:35;5.93;;;1.80;;
18726;SDS011;9492;51.888;5.186;2023-03-14T15:58:02;3.90;;;1.53;;
18726;SDS011;9492;51.888;5.186;2023-03-14T16:00:28;4.30;;;1.43;;
18726;SDS011;9492;51.888;5.186;2023-03-14T16:02:54;5.70;;;2.30;;
18726;SDS011;9492;51.888;5.186;2023-03-14T16:05:20;6.63;;;1.23;;
18726;SDS011;9492;51.888;5.186;2023-03-14T16:07:46;7.00;;;1.70;;
18726;SDS011;9492;51.888;5.186;2023-03-14T16:10:13;7.83;;;1.33;;
18726;SDS011;9492;51.888;5.186;2023-03-14T16:12:41;6.17;;;1.60;;
18726;SDS011;9492;51.888;5.186;2023-03-14T16:15:08;9.10;;;1.97;;
18726;SDS011;9492;51.888;5.186;2023-03-14T16:17:34;7.67;;;1.73;;
18726;SDS011;9492;51.888;5.186;2023-03-14T16:20:02;5.17;;;1.10;;
18726;SDS011;9492;51.888;5.186;2023-03-14T16:22:28;4.43;;;1.90;;
18726;SDS011;9492;51.888;5.186;2023-03-14T16:24:58;4.27;;;1.57;;
18726;SDS011;9492;51.888;5.186;2023-03-14T16:27:24;5.37;;;1.57;;
18726;SDS011;9492;51.888;5.186;2023-03-14T16:29:54;6.67;;;1.90;;
18726;SDS011;9492;51.888;5.186;2023-03-14T16:32:20;6.70;;;1.67;;
18726;SDS011;9492;51.888;5.186;2023-03-14T16:34:46;3.97;;;1.50;;
18726;SDS011;9492;51.888;5.186;2023-03-14T16:37:12;8.40;;;1.57;;
18726;SDS011;9492;51.888;5.186;2023-03-14T16:39:38;5.40;;;1.40;;